Portada
METAR-TAF:

METAR-TAF

Aeroports :

Manila, Filipines

latitud: 14-31N, longitud: 121-00E, altitud: 14 m

Observació

L'informe es va fer fa 27 minuts, a les 14:00 UTC
Vent 5 kt del Est/Sud-Est, variant entre Est i Sud
Temperatura 31°C
Humitat 66%
Pressió 1010 hPa
Visibilitat 10 km o més
Escasses núvols a una alçada de 2500 ft

METAR: RPLL 221400Z 12005KT 080V190 9999 FEW025 31/24 Q1010 NOSIG RMK A2983

Hora: 22:27 (14:27 UTC)

Pronòstic

L'informe es va fer fa 3 hores i 27 minuts, a les 11:00 UTC
Pronòstic vàlid del 22 a les 12 UTC al 23 a les 18 UTC
Vent 6 kt del Est/Sud-Est
Visibilitat 10 km o més
Escasses núvols a una alçada de 2300 ft, Cumulonimbus.
Núvols disperses a una alçada de 10000 ft

TAF: RPLL 221100Z 2212/2318 12006KT 9999 FEW023CB SCT100 TX37/2306Z TN28/2221Z

Observacions i pronòstics meteorològics de més de 4000 aeroports (METAR i TAF).

Les estacions disponibles són els punts grocs i vermells al mapa.

Posi el ratolí al punt desitjat per veure el nom de l'estació.

Feu clic per veure les observacions i els pronòstics meteorològics.

Per canviar el mapa: feu clic els botons verds amb una creu de color negre per apropar; al botó verd amb un guió per allunyar la imatge; o en les fletxes verdes per a mapes adjacents.


METAR-TAF: